sensor_id;sensor_type;location;lat;lon;timestamp;P1;durP1;ratioP1;P2;durP2;ratioP2
23712;SDS011;12035;49.978;8.298;2022-10-16T00:04:12;3.78;;;2.45;;
23712;SDS011;12035;49.978;8.298;2022-10-16T00:09:12;1.95;;;1.00;;
23712;SDS011;12035;49.978;8.298;2022-10-16T00:14:11;1.00;;;0.70;;
23712;SDS011;12035;49.978;8.298;2022-10-16T00:19:10;1.30;;;0.70;;
23712;SDS011;12035;49.978;8.298;2022-10-16T00:24:09;1.27;;;0.68;;
23712;SDS011;12035;49.978;8.298;2022-10-16T00:29:08;1.30;;;0.80;;
23712;SDS011;12035;49.978;8.298;2022-10-16T00:34:06;1.10;;;0.80;;
23712;SDS011;12035;49.978;8.298;2022-10-16T00:39:03;2.90;;;0.90;;
23712;SDS011;12035;49.978;8.298;2022-10-16T00:44:03;2.08;;;1.17;;
23712;SDS011;12035;49.978;8.298;2022-10-16T00:49:34;1.60;;;1.10;;
23712;SDS011;12035;49.978;8.298;2022-10-16T00:54:31;1.70;;;1.05;;
23712;SDS011;12035;49.978;8.298;2022-10-16T00:59:32;1.85;;;1.10;;
23712;SDS011;12035;49.978;8.298;2022-10-16T01:04:32;1.63;;;1.10;;
23712;SDS011;12035;49.978;8.298;2022-10-16T01:09:34;1.40;;;1.00;;
23712;SDS011;12035;49.978;8.298;2022-10-16T01:14:46;2.35;;;1.10;;
23712;SDS011;12035;49.978;8.298;2022-10-16T01:19:54;2.08;;;1.00;;
23712;SDS011;12035;49.978;8.298;2022-10-16T01:25:00;2.22;;;1.00;;
23712;SDS011;12035;49.978;8.298;2022-10-16T01:30:09;2.70;;;0.98;;
23712;SDS011;12035;49.978;8.298;2022-10-16T01:35:11;1.30;;;0.95;;
23712;SDS011;12035;49.978;8.298;2022-10-16T01:40:16;1.50;;;1.00;;
23712;SDS011;12035;49.978;8.298;2022-10-16T01:45:18;1.30;;;0.80;;
23712;SDS011;12035;49.978;8.298;2022-10-16T01:50:17;2.10;;;0.80;;
23712;SDS011;12035;49.978;8.298;2022-10-16T01:55:18;1.27;;;0.60;;
23712;SDS011;12035;49.978;8.298;2022-10-16T02:00:22;1.00;;;0.70;;
23712;SDS011;12035;49.978;8.298;2022-10-16T02:05:22;1.40;;;0.70;;
23712;SDS011;12035;49.978;8.298;2022-10-16T02:10:23;1.65;;;0.88;;
23712;SDS011;12035;49.978;8.298;2022-10-16T02:15:27;0.60;;;0.60;;
23712;SDS011;12035;49.978;8.298;2022-10-16T02:20:26;1.42;;;0.60;;
23712;SDS011;12035;49.978;8.298;2022-10-16T02:25:31;1.35;;;0.70;;
23712;SDS011;12035;49.978;8.298;2022-10-16T02:30:36;1.13;;;0.80;;
23712;SDS011;12035;49.978;8.298;2022-10-16T02:35:39;1.92;;;0.77;;
23712;SDS011;12035;49.978;8.298;2022-10-16T02:40:38;1.52;;;0.80;;
23712;SDS011;12035;49.978;8.298;2022-10-16T02:45:39;3.03;;;1.25;;
23712;SDS011;12035;49.978;8.298;2022-10-16T02:50:37;2.15;;;0.93;;
23712;SDS011;12035;49.978;8.298;2022-10-16T02:55:34;1.90;;;0.90;;
23712;SDS011;12035;49.978;8.298;2022-10-16T03:00:33;1.27;;;0.90;;
23712;SDS011;12035;49.978;8.298;2022-10-16T03:05:31;1.63;;;1.00;;
23712;SDS011;12035;49.978;8.298;2022-10-16T03:10:30;2.00;;;0.90;;
23712;SDS011;12035;49.978;8.298;2022-10-16T03:15:27;2.22;;;1.08;;
23712;SDS011;12035;49.978;8.298;2022-10-16T03:20:24;1.00;;;0.70;;
23712;SDS011;12035;49.978;8.298;2022-10-16T03:25:24;2.67;;;0.80;;
23712;SDS011;12035;49.978;8.298;2022-10-16T03:30:21;1.77;;;0.60;;
23712;SDS011;12035;49.978;8.298;2022-10-16T03:35:19;0.90;;;0.63;;
23712;SDS011;12035;49.978;8.298;2022-10-16T03:40:16;1.52;;;0.70;;
23712;SDS011;12035;49.978;8.298;2022-10-16T03:45:15;2.40;;;0.50;;
23712;SDS011;12035;49.978;8.298;2022-10-16T03:50:13;1.20;;;0.50;;
23712;SDS011;12035;49.978;8.298;2022-10-16T03:55:11;1.15;;;0.80;;
23712;SDS011;12035;49.978;8.298;2022-10-16T04:00:09;1.13;;;0.60;;
23712;SDS011;12035;49.978;8.298;2022-10-16T04:05:10;1.50;;;0.80;;
23712;SDS011;12035;49.978;8.298;2022-10-16T04:10:07;1.95;;;0.70;;
23712;SDS011;12035;49.978;8.298;2022-10-16T04:15:05;1.05;;;0.50;;
23712;SDS011;12035;49.978;8.298;2022-10-16T04:20:07;3.08;;;0.60;;
23712;SDS011;12035;49.978;8.298;2022-10-16T04:25:07;0.47;;;0.40;;
23712;SDS011;12035;49.978;8.298;2022-10-16T04:30:06;0.80;;;0.43;;
23712;SDS011;12035;49.978;8.298;2022-10-16T04:35:05;2.80;;;0.40;;
23712;SDS011;12035;49.978;8.298;2022-10-16T04:40:06;1.33;;;0.50;;
23712;SDS011;12035;49.978;8.298;2022-10-16T04:45:05;0.60;;;0.30;;
23712;SDS011;12035;49.978;8.298;2022-10-16T04:50:04;0.80;;;0.45;;
23712;SDS011;12035;49.978;8.298;2022-10-16T04:55:05;1.63;;;0.28;;
23712;SDS011;12035;49.978;8.298;2022-10-16T05:00:03;0.50;;;0.35;;
23712;SDS011;12035;49.978;8.298;2022-10-16T05:05:03;1.13;;;0.47;;
23712;SDS011;12035;49.978;8.298;2022-10-16T05:10:02;2.20;;;0.68;;
23712;SDS011;12035;49.978;8.298;2022-10-16T05:15:01;0.50;;;0.40;;
23712;SDS011;12035;49.978;8.298;2022-10-16T05:20:00;0.88;;;0.40;;
23712;SDS011;12035;49.978;8.298;2022-10-16T05:24:58;0.60;;;0.40;;
23712;SDS011;12035;49.978;8.298;2022-10-16T05:29:57;1.58;;;0.40;;
23712;SDS011;12035;49.978;8.298;2022-10-16T05:34:54;2.08;;;0.40;;
23712;SDS011;12035;49.978;8.298;2022-10-16T05:39:54;2.28;;;0.50;;
23712;SDS011;12035;49.978;8.298;2022-10-16T05:44:51;0.60;;;0.40;;
23712;SDS011;12035;49.978;8.298;2022-10-16T05:49:50;0.40;;;0.30;;
23712;SDS011;12035;49.978;8.298;2022-10-16T05:54:48;0.98;;;0.50;;
23712;SDS011;12035;49.978;8.298;2022-10-16T05:59:48;1.25;;;0.40;;
23712;SDS011;12035;49.978;8.298;2022-10-16T06:04:46;0.68;;;0.50;;
23712;SDS011;12035;49.978;8.298;2022-10-16T06:09:49;2.17;;;0.70;;
23712;SDS011;12035;49.978;8.298;2022-10-16T06:14:46;1.08;;;0.65;;
23712;SDS011;12035;49.978;8.298;2022-10-16T06:19:45;1.27;;;0.80;;
23712;SDS011;12035;49.978;8.298;2022-10-16T06:24:44;1.63;;;0.65;;
23712;SDS011;12035;49.978;8.298;2022-10-16T06:35:16;1.42;;;0.80;;
23712;SDS011;12035;49.978;8.298;2022-10-16T06:40:20;2.67;;;0.60;;
23712;SDS011;12035;49.978;8.298;2022-10-16T06:45:20;1.20;;;0.40;;
23712;SDS011;12035;49.978;8.298;2022-10-16T06:50:22;3.63;;;0.57;;
23712;SDS011;12035;49.978;8.298;2022-10-16T06:55:20;1.40;;;0.60;;
23712;SDS011;12035;49.978;8.298;2022-10-16T07:00:17;1.00;;;0.50;;
23712;SDS011;12035;49.978;8.298;2022-10-16T07:05:18;0.90;;;0.40;;
23712;SDS011;12035;49.978;8.298;2022-10-16T07:10:16;0.98;;;0.50;;
23712;SDS011;12035;49.978;8.298;2022-10-16T07:15:20;2.10;;;0.80;;
23712;SDS011;12035;49.978;8.298;2022-10-16T07:20:18;1.60;;;0.60;;
23712;SDS011;12035;49.978;8.298;2022-10-16T07:25:18;1.40;;;0.60;;
23712;SDS011;12035;49.978;8.298;2022-10-16T07:30:21;0.77;;;0.57;;
23712;SDS011;12035;49.978;8.298;2022-10-16T07:35:21;2.33;;;0.50;;
23712;SDS011;12035;49.978;8.298;2022-10-16T07:40:19;1.88;;;0.60;;
23712;SDS011;12035;49.978;8.298;2022-10-16T07:45:16;2.92;;;0.80;;
23712;SDS011;12035;49.978;8.298;2022-10-16T07:50:15;1.63;;;0.80;;
23712;SDS011;12035;49.978;8.298;2022-10-16T07:55:17;1.15;;;0.52;;
23712;SDS011;12035;49.978;8.298;2022-10-16T08:00:19;3.45;;;0.90;;
23712;SDS011;12035;49.978;8.298;2022-10-16T08:05:20;1.58;;;1.00;;
23712;SDS011;12035;49.978;8.298;2022-10-16T08:10:20;2.13;;;1.10;;
23712;SDS011;12035;49.978;8.298;2022-10-16T08:15:19;1.77;;;1.00;;
23712;SDS011;12035;49.978;8.298;2022-10-16T08:20:19;1.75;;;1.20;;
23712;SDS011;12035;49.978;8.298;2022-10-16T08:25:17;2.55;;;1.08;;
23712;SDS011;12035;49.978;8.298;2022-10-16T08:30:15;1.77;;;0.98;;
23712;SDS011;12035;49.978;8.298;2022-10-16T08:35:16;1.40;;;0.85;;
23712;SDS011;12035;49.978;8.298;2022-10-16T08:40:18;2.88;;;0.82;;
23712;SDS011;12035;49.978;8.298;2022-10-16T08:45:24;5.10;;;1.23;;
23712;SDS011;12035;49.978;8.298;2022-10-16T08:50:36;1.98;;;0.90;;
23712;SDS011;12035;49.978;8.298;2022-10-16T08:55:48;1.48;;;0.70;;
23712;SDS011;12035;49.978;8.298;2022-10-16T09:00:49;1.23;;;0.73;;
23712;SDS011;12035;49.978;8.298;2022-10-16T09:05:57;1.35;;;0.73;;
23712;SDS011;12035;49.978;8.298;2022-10-16T09:11:09;1.13;;;0.88;;
23712;SDS011;12035;49.978;8.298;2022-10-16T09:16:29;3.53;;;1.00;;
23712;SDS011;12035;49.978;8.298;2022-10-16T09:21:36;3.38;;;1.40;;
23712;SDS011;12035;49.978;8.298;2022-10-16T09:26:51;4.85;;;1.60;;
23712;SDS011;12035;49.978;8.298;2022-10-16T09:31:51;2.85;;;1.50;;
23712;SDS011;12035;49.978;8.298;2022-10-16T09:36:49;3.00;;;1.10;;
23712;SDS011;12035;49.978;8.298;2022-10-16T09:41:48;2.13;;;0.90;;
23712;SDS011;12035;49.978;8.298;2022-10-16T09:47:00;1.70;;;0.90;;
23712;SDS011;12035;49.978;8.298;2022-10-16T09:52:03;1.70;;;1.00;;
23712;SDS011;12035;49.978;8.298;2022-10-16T09:57:11;2.20;;;1.35;;
23712;SDS011;12035;49.978;8.298;2022-10-16T10:02:23;3.08;;;1.80;;
23712;SDS011;12035;49.978;8.298;2022-10-16T10:07:28;3.95;;;1.50;;
23712;SDS011;12035;49.978;8.298;2022-10-16T10:12:42;2.13;;;1.23;;
23712;SDS011;12035;49.978;8.298;2022-10-16T10:17:57;3.23;;;1.37;;
23712;SDS011;12035;49.978;8.298;2022-10-16T10:22:58;2.53;;;1.23;;
23712;SDS011;12035;49.978;8.298;2022-10-16T10:33:46;3.35;;;1.65;;
23712;SDS011;12035;49.978;8.298;2022-10-16T10:38:52;6.07;;;1.70;;
23712;SDS011;12035;49.978;8.298;2022-10-16T10:43:59;6.63;;;1.67;;
23712;SDS011;12035;49.978;8.298;2022-10-16T10:49:11;6.93;;;1.60;;
23712;SDS011;12035;49.978;8.298;2022-10-16T10:54:24;3.55;;;1.40;;
23712;SDS011;12035;49.978;8.298;2022-10-16T10:59:35;3.88;;;1.52;;
23712;SDS011;12035;49.978;8.298;2022-10-16T11:05:13;3.08;;;1.33;;
23712;SDS011;12035;49.978;8.298;2022-10-16T11:10:21;3.00;;;1.33;;
23712;SDS011;12035;49.978;8.298;2022-10-16T11:15:25;4.10;;;1.40;;
23712;SDS011;12035;49.978;8.298;2022-10-16T11:20:29;2.53;;;1.40;;
23712;SDS011;12035;49.978;8.298;2022-10-16T11:25:31;4.43;;;1.85;;
23712;SDS011;12035;49.978;8.298;2022-10-16T11:30:33;4.13;;;1.20;;
23712;SDS011;12035;49.978;8.298;2022-10-16T11:35:39;2.72;;;1.30;;
23712;SDS011;12035;49.978;8.298;2022-10-16T11:40:41;2.63;;;1.15;;
23712;SDS011;12035;49.978;8.298;2022-10-16T11:45:46;4.05;;;1.40;;
23712;SDS011;12035;49.978;8.298;2022-10-16T11:50:49;2.65;;;1.17;;
23712;SDS011;12035;49.978;8.298;2022-10-16T11:55:50;2.78;;;1.40;;
23712;SDS011;12035;49.978;8.298;2022-10-16T12:00:53;1.98;;;1.20;;
23712;SDS011;12035;49.978;8.298;2022-10-16T12:06:02;3.08;;;1.25;;
23712;SDS011;12035;49.978;8.298;2022-10-16T12:11:22;2.45;;;1.10;;
23712;SDS011;12035;49.978;8.298;2022-10-16T12:16:36;2.08;;;0.80;;
23712;SDS011;12035;49.978;8.298;2022-10-16T12:21:35;2.13;;;1.20;;
23712;SDS011;12035;49.978;8.298;2022-10-16T12:26:32;1.85;;;0.80;;
23712;SDS011;12035;49.978;8.298;2022-10-16T12:31:38;2.08;;;0.90;;
23712;SDS011;12035;49.978;8.298;2022-10-16T12:36:41;3.05;;;1.45;;
23712;SDS011;12035;49.978;8.298;2022-10-16T12:41:40;2.33;;;1.10;;
23712;SDS011;12035;49.978;8.298;2022-10-16T12:46:40;3.42;;;0.95;;
23712;SDS011;12035;49.978;8.298;2022-10-16T12:51:37;22.65;;;14.82;;
23712;SDS011;12035;49.978;8.298;2022-10-16T12:56:39;8.77;;;6.25;;
23712;SDS011;12035;49.978;8.298;2022-10-16T13:02:02;4.07;;;2.70;;
23712;SDS011;12035;49.978;8.298;2022-10-16T13:07:35;3.05;;;1.90;;
23712;SDS011;12035;49.978;8.298;2022-10-16T13:12:57;1.75;;;1.10;;
23712;SDS011;12035;49.978;8.298;2022-10-16T13:23:29;5.53;;;1.83;;
23712;SDS011;12035;49.978;8.298;2022-10-16T13:28:39;4.60;;;3.13;;
23712;SDS011;12035;49.978;8.298;2022-10-16T13:33:39;2.25;;;1.40;;
23712;SDS011;12035;49.978;8.298;2022-10-16T13:38:38;2.90;;;0.95;;
23712;SDS011;12035;49.978;8.298;2022-10-16T13:43:36;2.28;;;0.80;;
23712;SDS011;12035;49.978;8.298;2022-10-16T13:48:43;1.05;;;0.90;;
23712;SDS011;12035;49.978;8.298;2022-10-16T13:53:41;2.17;;;1.20;;
23712;SDS011;12035;49.978;8.298;2022-10-16T13:58:39;2.35;;;0.95;;
23712;SDS011;12035;49.978;8.298;2022-10-16T14:03:37;2.00;;;1.00;;
23712;SDS011;12035;49.978;8.298;2022-10-16T14:08:37;6.00;;;1.30;;
23712;SDS011;12035;49.978;8.298;2022-10-16T14:13:43;2.47;;;1.20;;
23712;SDS011;12035;49.978;8.298;2022-10-16T14:18:44;2.63;;;1.10;;
23712;SDS011;12035;49.978;8.298;2022-10-16T14:23:44;1.45;;;1.00;;
23712;SDS011;12035;49.978;8.298;2022-10-16T14:28:43;2.13;;;1.30;;
23712;SDS011;12035;49.978;8.298;2022-10-16T14:33:44;2.10;;;1.20;;
23712;SDS011;12035;49.978;8.298;2022-10-16T14:38:43;2.70;;;1.15;;
23712;SDS011;12035;49.978;8.298;2022-10-16T14:43:54;3.22;;;1.30;;
23712;SDS011;12035;49.978;8.298;2022-10-16T14:49:11;2.80;;;1.35;;
23712;SDS011;12035;49.978;8.298;2022-10-16T14:54:25;3.45;;;1.08;;
23712;SDS011;12035;49.978;8.298;2022-10-16T15:00:06;2.80;;;1.42;;
23712;SDS011;12035;49.978;8.298;2022-10-16T15:05:15;1.95;;;1.20;;
23712;SDS011;12035;49.978;8.298;2022-10-16T15:10:17;2.67;;;1.50;;
23712;SDS011;12035;49.978;8.298;2022-10-16T15:15:23;2.08;;;1.38;;
23712;SDS011;12035;49.978;8.298;2022-10-16T15:20:34;2.17;;;1.20;;
23712;SDS011;12035;49.978;8.298;2022-10-16T15:25:37;1.92;;;1.10;;
23712;SDS011;12035;49.978;8.298;2022-10-16T15:30:41;2.63;;;1.80;;
23712;SDS011;12035;49.978;8.298;2022-10-16T15:35:41;2.63;;;1.50;;
23712;SDS011;12035;49.978;8.298;2022-10-16T15:50:58;3.92;;;1.70;;
23712;SDS011;12035;49.978;8.298;2022-10-16T15:56:02;2.78;;;1.52;;
23712;SDS011;12035;49.978;8.298;2022-10-16T16:01:32;6.55;;;1.55;;
23712;SDS011;12035;49.978;8.298;2022-10-16T16:06:30;3.38;;;1.63;;
23712;SDS011;12035;49.978;8.298;2022-10-16T16:11:30;3.15;;;1.60;;
23712;SDS011;12035;49.978;8.298;2022-10-16T16:16:32;2.60;;;1.70;;
23712;SDS011;12035;49.978;8.298;2022-10-16T16:21:33;3.47;;;1.60;;
23712;SDS011;12035;49.978;8.298;2022-10-16T16:26:35;4.15;;;1.70;;
23712;SDS011;12035;49.978;8.298;2022-10-16T16:31:34;3.50;;;1.88;;
23712;SDS011;12035;49.978;8.298;2022-10-16T16:36:33;3.70;;;2.08;;
23712;SDS011;12035;49.978;8.298;2022-10-16T16:41:31;4.47;;;2.10;;
23712;SDS011;12035;49.978;8.298;2022-10-16T16:46:30;3.78;;;2.00;;
23712;SDS011;12035;49.978;8.298;2022-10-16T16:51:30;3.10;;;2.00;;
23712;SDS011;12035;49.978;8.298;2022-10-16T16:56:27;3.85;;;1.80;;
23712;SDS011;12035;49.978;8.298;2022-10-16T17:01:26;2.92;;;1.95;;
23712;SDS011;12035;49.978;8.298;2022-10-16T17:06:27;2.28;;;1.65;;
23712;SDS011;12035;49.978;8.298;2022-10-16T17:11:29;4.55;;;2.10;;
23712;SDS011;12035;49.978;8.298;2022-10-16T17:16:29;3.42;;;1.90;;
23712;SDS011;12035;49.978;8.298;2022-10-16T17:21:31;3.58;;;2.20;;
23712;SDS011;12035;49.978;8.298;2022-10-16T17:26:33;6.30;;;2.70;;
23712;SDS011;12035;49.978;8.298;2022-10-16T17:31:35;4.38;;;2.58;;
23712;SDS011;12035;49.978;8.298;2022-10-16T17:36:39;5.30;;;2.35;;
23712;SDS011;12035;49.978;8.298;2022-10-16T17:41:41;4.05;;;2.13;;
23712;SDS011;12035;49.978;8.298;2022-10-16T17:46:39;5.50;;;2.70;;
23712;SDS011;12035;49.978;8.298;2022-10-16T17:51:47;3.28;;;1.92;;
23712;SDS011;12035;49.978;8.298;2022-10-16T17:56:46;5.07;;;2.50;;
23712;SDS011;12035;49.978;8.298;2022-10-16T18:01:44;2.90;;;1.90;;
23712;SDS011;12035;49.978;8.298;2022-10-16T18:06:43;3.90;;;2.20;;
23712;SDS011;12035;49.978;8.298;2022-10-16T18:11:42;3.10;;;2.00;;
23712;SDS011;12035;49.978;8.298;2022-10-16T18:16:40;3.20;;;1.90;;
23712;SDS011;12035;49.978;8.298;2022-10-16T18:21:37;6.78;;;3.90;;
23712;SDS011;12035;49.978;8.298;2022-10-16T18:26:36;4.00;;;3.13;;
23712;SDS011;12035;49.978;8.298;2022-10-16T18:31:34;3.70;;;2.60;;
23712;SDS011;12035;49.978;8.298;2022-10-16T18:36:35;4.10;;;2.67;;
23712;SDS011;12035;49.978;8.298;2022-10-16T18:41:33;3.83;;;2.25;;
23712;SDS011;12035;49.978;8.298;2022-10-16T18:46:43;3.65;;;2.67;;
23712;SDS011;12035;49.978;8.298;2022-10-16T18:51:40;3.83;;;2.40;;
23712;SDS011;12035;49.978;8.298;2022-10-16T18:56:41;5.03;;;3.60;;
23712;SDS011;12035;49.978;8.298;2022-10-16T19:01:39;6.85;;;3.05;;
23712;SDS011;12035;49.978;8.298;2022-10-16T19:06:38;5.15;;;2.80;;
23712;SDS011;12035;49.978;8.298;2022-10-16T19:11:37;6.13;;;2.30;;
23712;SDS011;12035;49.978;8.298;2022-10-16T19:16:36;3.45;;;2.35;;
23712;SDS011;12035;49.978;8.298;2022-10-16T19:21:36;9.15;;;2.20;;
23712;SDS011;12035;49.978;8.298;2022-10-16T19:26:35;4.40;;;2.30;;
23712;SDS011;12035;49.978;8.298;2022-10-16T19:31:32;3.70;;;2.40;;
23712;SDS011;12035;49.978;8.298;2022-10-16T19:36:33;9.18;;;5.10;;
23712;SDS011;12035;49.978;8.298;2022-10-16T19:41:44;8.60;;;5.78;;
23712;SDS011;12035;49.978;8.298;2022-10-16T19:46:43;12.52;;;7.43;;
23712;SDS011;12035;49.978;8.298;2022-10-16T19:51:44;10.00;;;4.38;;
23712;SDS011;12035;49.978;8.298;2022-10-16T19:56:43;5.55;;;3.05;;
23712;SDS011;12035;49.978;8.298;2022-10-16T20:01:41;4.70;;;2.80;;
23712;SDS011;12035;49.978;8.298;2022-10-16T20:06:38;5.25;;;2.97;;
23712;SDS011;12035;49.978;8.298;2022-10-16T20:11:37;8.57;;;5.70;;
23712;SDS011;12035;49.978;8.298;2022-10-16T20:16:34;21.80;;;14.57;;
23712;SDS011;12035;49.978;8.298;2022-10-16T20:21:32;11.13;;;6.80;;
23712;SDS011;12035;49.978;8.298;2022-10-16T20:31:51;5.88;;;3.17;;
23712;SDS011;12035;49.978;8.298;2022-10-16T20:36:53;4.40;;;2.97;;
23712;SDS011;12035;49.978;8.298;2022-10-16T20:41:59;10.65;;;3.38;;
23712;SDS011;12035;49.978;8.298;2022-10-16T20:46:56;5.32;;;4.00;;
23712;SDS011;12035;49.978;8.298;2022-10-16T20:51:53;10.68;;;4.30;;
23712;SDS011;12035;49.978;8.298;2022-10-16T20:56:51;6.43;;;3.45;;
23712;SDS011;12035;49.978;8.298;2022-10-16T21:01:50;7.13;;;3.53;;
23712;SDS011;12035;49.978;8.298;2022-10-16T21:06:47;4.93;;;3.15;;
23712;SDS011;12035;49.978;8.298;2022-10-16T21:11:44;6.88;;;3.90;;
23712;SDS011;12035;49.978;8.298;2022-10-16T21:16:42;6.78;;;3.00;;
23712;SDS011;12035;49.978;8.298;2022-10-16T21:21:40;6.40;;;3.40;;
23712;SDS011;12035;49.978;8.298;2022-10-16T21:26:37;5.53;;;3.47;;
23712;SDS011;12035;49.978;8.298;2022-10-16T21:31:37;6.07;;;3.72;;
23712;SDS011;12035;49.978;8.298;2022-10-16T21:36:41;4.65;;;2.88;;
23712;SDS011;12035;49.978;8.298;2022-10-16T21:41:39;5.22;;;2.83;;
23712;SDS011;12035;49.978;8.298;2022-10-16T21:46:38;7.43;;;3.47;;
23712;SDS011;12035;49.978;8.298;2022-10-16T21:51:39;4.75;;;3.00;;
23712;SDS011;12035;49.978;8.298;2022-10-16T21:56:40;4.65;;;3.05;;
23712;SDS011;12035;49.978;8.298;2022-10-16T22:01:37;3.85;;;2.20;;
23712;SDS011;12035;49.978;8.298;2022-10-16T22:06:35;7.82;;;3.30;;
23712;SDS011;12035;49.978;8.298;2022-10-16T22:11:34;9.68;;;3.40;;
23712;SDS011;12035;49.978;8.298;2022-10-16T22:16:33;4.43;;;3.38;;
23712;SDS011;12035;49.978;8.298;2022-10-16T22:21:31;4.47;;;3.42;;
23712;SDS011;12035;49.978;8.298;2022-10-16T22:26:29;6.30;;;2.88;;
23712;SDS011;12035;49.978;8.298;2022-10-16T22:31:28;6.28;;;2.85;;
23712;SDS011;12035;49.978;8.298;2022-10-16T22:36:26;3.85;;;2.80;;
23712;SDS011;12035;49.978;8.298;2022-10-16T22:41:24;5.63;;;3.08;;
23712;SDS011;12035;49.978;8.298;2022-10-16T22:46:22;4.45;;;2.58;;
23712;SDS011;12035;49.978;8.298;2022-10-16T22:51:23;4.88;;;2.45;;
23712;SDS011;12035;49.978;8.298;2022-10-16T22:56:22;3.05;;;2.20;;
23712;SDS011;12035;49.978;8.298;2022-10-16T23:01:20;6.95;;;2.97;;
23712;SDS011;12035;49.978;8.298;2022-10-16T23:06:20;3.58;;;2.47;;
23712;SDS011;12035;49.978;8.298;2022-10-16T23:11:19;3.58;;;2.35;;
23712;SDS011;12035;49.978;8.298;2022-10-16T23:16:18;5.45;;;2.72;;
23712;SDS011;12035;49.978;8.298;2022-10-16T23:21:18;3.42;;;2.28;;
23712;SDS011;12035;49.978;8.298;2022-10-16T23:26:20;4.47;;;2.85;;
23712;SDS011;12035;49.978;8.298;2022-10-16T23:31:19;5.32;;;3.25;;
23712;SDS011;12035;49.978;8.298;2022-10-16T23:36:17;4.53;;;2.35;;
23712;SDS011;12035;49.978;8.298;2022-10-16T23:41:17;3.25;;;2.03;;
23712;SDS011;12035;49.978;8.298;2022-10-16T23:46:16;4.80;;;3.05;;
23712;SDS011;12035;49.978;8.298;2022-10-16T23:51:13;6.13;;;3.30;;
23712;SDS011;12035;49.978;8.298;2022-10-16T23:56:11;5.03;;;3.05;;
